sensor_id;sensor_type;location;lat;lon;timestamp;P1;durP1;ratioP1;P2;durP2;ratioP2
5622;SDS011;2833;50.432;10.706;2023-04-03T00:00:42;7.60;;;3.57;;
5622;SDS011;2833;50.432;10.706;2023-04-03T00:03:07;3.60;;;2.97;;
5622;SDS011;2833;50.432;10.706;2023-04-03T00:05:32;6.90;;;3.27;;
5622;SDS011;2833;50.432;10.706;2023-04-03T00:07:58;10.03;;;3.30;;
5622;SDS011;2833;50.432;10.706;2023-04-03T00:10:23;4.37;;;2.80;;
5622;SDS011;2833;50.432;10.706;2023-04-03T00:12:48;4.70;;;3.00;;
5622;SDS011;2833;50.432;10.706;2023-04-03T00:15:13;5.67;;;3.20;;
5622;SDS011;2833;50.432;10.706;2023-04-03T00:17:39;4.53;;;3.00;;
5622;SDS011;2833;50.432;10.706;2023-04-03T00:20:04;3.50;;;2.73;;
5622;SDS011;2833;50.432;10.706;2023-04-03T00:22:30;3.27;;;2.73;;
5622;SDS011;2833;50.432;10.706;2023-04-03T00:24:55;4.40;;;2.80;;
5622;SDS011;2833;50.432;10.706;2023-04-03T00:27:20;3.60;;;2.80;;
5622;SDS011;2833;50.432;10.706;2023-04-03T00:29:45;4.40;;;2.33;;
5622;SDS011;2833;50.432;10.706;2023-04-03T00:32:10;3.43;;;2.70;;
5622;SDS011;2833;50.432;10.706;2023-04-03T00:34:36;2.67;;;2.47;;
5622;SDS011;2833;50.432;10.706;2023-04-03T00:37:01;4.20;;;2.23;;
5622;SDS011;2833;50.432;10.706;2023-04-03T00:39:26;4.30;;;2.50;;
5622;SDS011;2833;50.432;10.706;2023-04-03T00:41:51;4.37;;;2.50;;
5622;SDS011;2833;50.432;10.706;2023-04-03T00:46:44;2.40;;;2.20;;
5622;SDS011;2833;50.432;10.706;2023-04-03T00:49:10;5.10;;;2.70;;
5622;SDS011;2833;50.432;10.706;2023-04-03T00:51:35;4.70;;;2.67;;
5622;SDS011;2833;50.432;10.706;2023-04-03T00:54:01;3.60;;;2.63;;
5622;SDS011;2833;50.432;10.706;2023-04-03T00:56:27;3.23;;;2.60;;
5622;SDS011;2833;50.432;10.706;2023-04-03T00:58:56;5.20;;;2.53;;
5622;SDS011;2833;50.432;10.706;2023-04-03T01:01:23;5.07;;;2.30;;
5622;SDS011;2833;50.432;10.706;2023-04-03T01:03:49;3.57;;;2.73;;
5622;SDS011;2833;50.432;10.706;2023-04-03T01:06:16;3.33;;;2.50;;
5622;SDS011;2833;50.432;10.706;2023-04-03T01:08:41;2.90;;;2.60;;
5622;SDS011;2833;50.432;10.706;2023-04-03T01:11:06;3.80;;;2.43;;
5622;SDS011;2833;50.432;10.706;2023-04-03T01:13:32;3.30;;;2.30;;
5622;SDS011;2833;50.432;10.706;2023-04-03T01:16:00;3.50;;;3.10;;
5622;SDS011;2833;50.432;10.706;2023-04-03T01:18:25;3.23;;;2.93;;
5622;SDS011;2833;50.432;10.706;2023-04-03T01:23:27;3.33;;;2.77;;
5622;SDS011;2833;50.432;10.706;2023-04-03T01:25:55;4.13;;;2.87;;
5622;SDS011;2833;50.432;10.706;2023-04-03T01:31:00;4.40;;;3.00;;
5622;SDS011;2833;50.432;10.706;2023-04-03T01:33:27;3.03;;;2.73;;
5622;SDS011;2833;50.432;10.706;2023-04-03T01:35:53;6.23;;;2.70;;
5622;SDS011;2833;50.432;10.706;2023-04-03T01:38:18;3.70;;;2.90;;
5622;SDS011;2833;50.432;10.706;2023-04-03T01:40:43;2.33;;;2.13;;
5622;SDS011;2833;50.432;10.706;2023-04-03T01:43:08;7.53;;;2.93;;
5622;SDS011;2833;50.432;10.706;2023-04-03T01:45:34;3.23;;;2.70;;
5622;SDS011;2833;50.432;10.706;2023-04-03T01:47:59;2.87;;;2.53;;
5622;SDS011;2833;50.432;10.706;2023-04-03T01:50:24;3.07;;;2.60;;
5622;SDS011;2833;50.432;10.706;2023-04-03T01:52:50;3.30;;;3.00;;
5622;SDS011;2833;50.432;10.706;2023-04-03T01:55:15;3.10;;;2.80;;
5622;SDS011;2833;50.432;10.706;2023-04-03T01:57:40;8.50;;;2.80;;
5622;SDS011;2833;50.432;10.706;2023-04-03T02:00:06;2.80;;;2.60;;
5622;SDS011;2833;50.432;10.706;2023-04-03T02:02:32;5.73;;;2.63;;
5622;SDS011;2833;50.432;10.706;2023-04-03T02:04:57;2.83;;;2.60;;
5622;SDS011;2833;50.432;10.706;2023-04-03T02:07:22;3.87;;;2.70;;
5622;SDS011;2833;50.432;10.706;2023-04-03T02:09:48;4.87;;;3.20;;
5622;SDS011;2833;50.432;10.706;2023-04-03T02:12:13;2.40;;;2.20;;
5622;SDS011;2833;50.432;10.706;2023-04-03T02:14:38;4.90;;;3.00;;
5622;SDS011;2833;50.432;10.706;2023-04-03T02:17:03;5.73;;;3.70;;
5622;SDS011;2833;50.432;10.706;2023-04-03T02:19:33;5.63;;;3.87;;
5622;SDS011;2833;50.432;10.706;2023-04-03T02:21:58;6.00;;;5.00;;
5622;SDS011;2833;50.432;10.706;2023-04-03T02:24:23;6.30;;;4.50;;
5622;SDS011;2833;50.432;10.706;2023-04-03T02:26:48;3.53;;;3.23;;
5622;SDS011;2833;50.432;10.706;2023-04-03T02:29:13;8.13;;;2.90;;
5622;SDS011;2833;50.432;10.706;2023-04-03T02:31:39;71.73;;;16.67;;
5622;SDS011;2833;50.432;10.706;2023-04-03T02:34:04;53.07;;;14.50;;
5622;SDS011;2833;50.432;10.706;2023-04-03T02:36:30;33.80;;;10.80;;
5622;SDS011;2833;50.432;10.706;2023-04-03T02:38:55;24.03;;;9.80;;
5622;SDS011;2833;50.432;10.706;2023-04-03T02:41:20;40.97;;;16.70;;
5622;SDS011;2833;50.432;10.706;2023-04-03T02:43:46;29.93;;;13.63;;
5622;SDS011;2833;50.432;10.706;2023-04-03T02:46:11;22.93;;;12.00;;
5622;SDS011;2833;50.432;10.706;2023-04-03T02:48:36;38.33;;;18.40;;
5622;SDS011;2833;50.432;10.706;2023-04-03T02:51:01;47.70;;;21.60;;
5622;SDS011;2833;50.432;10.706;2023-04-03T02:53:26;70.50;;;30.27;;
5622;SDS011;2833;50.432;10.706;2023-04-03T02:55:52;52.43;;;23.27;;
5622;SDS011;2833;50.432;10.706;2023-04-03T02:58:17;30.93;;;14.33;;
5622;SDS011;2833;50.432;10.706;2023-04-03T03:00:42;10.70;;;5.10;;
5622;SDS011;2833;50.432;10.706;2023-04-03T03:03:07;7.80;;;4.60;;
5622;SDS011;2833;50.432;10.706;2023-04-03T03:05:32;9.00;;;5.90;;
5622;SDS011;2833;50.432;10.706;2023-04-03T03:07:58;14.20;;;7.23;;
5622;SDS011;2833;50.432;10.706;2023-04-03T03:10:23;12.20;;;7.00;;
5622;SDS011;2833;50.432;10.706;2023-04-03T03:12:49;10.67;;;6.50;;
5622;SDS011;2833;50.432;10.706;2023-04-03T03:15:14;14.67;;;6.93;;
5622;SDS011;2833;50.432;10.706;2023-04-03T03:17:41;10.23;;;6.37;;
5622;SDS011;2833;50.432;10.706;2023-04-03T03:20:06;11.10;;;6.23;;
5622;SDS011;2833;50.432;10.706;2023-04-03T03:22:32;14.67;;;6.10;;
5622;SDS011;2833;50.432;10.706;2023-04-03T03:24:57;9.90;;;6.00;;
5622;SDS011;2833;50.432;10.706;2023-04-03T03:27:22;9.80;;;4.90;;
5622;SDS011;2833;50.432;10.706;2023-04-03T03:29:48;8.00;;;4.77;;
5622;SDS011;2833;50.432;10.706;2023-04-03T03:32:14;5.37;;;4.17;;
5622;SDS011;2833;50.432;10.706;2023-04-03T03:34:39;4.73;;;4.13;;
5622;SDS011;2833;50.432;10.706;2023-04-03T03:37:05;5.73;;;4.20;;
5622;SDS011;2833;50.432;10.706;2023-04-03T03:39:30;6.10;;;4.50;;
5622;SDS011;2833;50.432;10.706;2023-04-03T03:41:55;6.00;;;3.27;;
5622;SDS011;2833;50.432;10.706;2023-04-03T03:44:21;6.47;;;3.50;;
5622;SDS011;2833;50.432;10.706;2023-04-03T03:46:46;11.00;;;4.23;;
5622;SDS011;2833;50.432;10.706;2023-04-03T03:49:11;10.03;;;4.87;;
5622;SDS011;2833;50.432;10.706;2023-04-03T03:51:37;4.97;;;3.70;;
5622;SDS011;2833;50.432;10.706;2023-04-03T03:54:02;10.23;;;5.63;;
5622;SDS011;2833;50.432;10.706;2023-04-03T03:56:27;9.63;;;5.43;;
5622;SDS011;2833;50.432;10.706;2023-04-03T03:58:52;9.23;;;5.80;;
5622;SDS011;2833;50.432;10.706;2023-04-03T04:01:18;4.93;;;3.27;;
5622;SDS011;2833;50.432;10.706;2023-04-03T04:03:43;4.43;;;3.40;;
5622;SDS011;2833;50.432;10.706;2023-04-03T04:06:08;7.40;;;4.40;;
5622;SDS011;2833;50.432;10.706;2023-04-03T04:08:33;8.67;;;5.67;;
5622;SDS011;2833;50.432;10.706;2023-04-03T04:10:58;9.17;;;4.23;;
5622;SDS011;2833;50.432;10.706;2023-04-03T04:13:23;6.20;;;5.03;;
5622;SDS011;2833;50.432;10.706;2023-04-03T04:15:49;11.03;;;5.40;;
5622;SDS011;2833;50.432;10.706;2023-04-03T04:18:14;5.40;;;3.53;;
5622;SDS011;2833;50.432;10.706;2023-04-03T04:20:39;5.47;;;3.60;;
5622;SDS011;2833;50.432;10.706;2023-04-03T04:23:04;7.30;;;4.10;;
5622;SDS011;2833;50.432;10.706;2023-04-03T04:25:30;21.60;;;10.27;;
5622;SDS011;2833;50.432;10.706;2023-04-03T04:27:55;30.57;;;11.70;;
5622;SDS011;2833;50.432;10.706;2023-04-03T04:30:20;7.90;;;4.33;;
5622;SDS011;2833;50.432;10.706;2023-04-03T04:32:45;39.60;;;14.33;;
5622;SDS011;2833;50.432;10.706;2023-04-03T04:35:10;3.90;;;3.50;;
5622;SDS011;2833;50.432;10.706;2023-04-03T04:37:36;15.93;;;6.47;;
5622;SDS011;2833;50.432;10.706;2023-04-03T04:40:02;40.90;;;14.37;;
5622;SDS011;2833;50.432;10.706;2023-04-03T04:42:27;25.77;;;9.83;;
5622;SDS011;2833;50.432;10.706;2023-04-03T04:44:52;30.93;;;11.50;;
5622;SDS011;2833;50.432;10.706;2023-04-03T04:47:17;54.27;;;20.67;;
5622;SDS011;2833;50.432;10.706;2023-04-03T04:49:43;26.00;;;11.37;;
5622;SDS011;2833;50.432;10.706;2023-04-03T04:52:08;34.83;;;13.10;;
5622;SDS011;2833;50.432;10.706;2023-04-03T04:54:33;14.43;;;6.43;;
5622;SDS011;2833;50.432;10.706;2023-04-03T04:56:58;6.47;;;3.30;;
5622;SDS011;2833;50.432;10.706;2023-04-03T04:59:24;3.17;;;2.53;;
5622;SDS011;2833;50.432;10.706;2023-04-03T05:01:49;3.87;;;3.30;;
5622;SDS011;2833;50.432;10.706;2023-04-03T05:04:14;8.90;;;5.70;;
5622;SDS011;2833;50.432;10.706;2023-04-03T05:06:40;8.10;;;2.53;;
5622;SDS011;2833;50.432;10.706;2023-04-03T05:09:05;5.00;;;2.90;;
5622;SDS011;2833;50.432;10.706;2023-04-03T05:11:31;4.23;;;3.07;;
5622;SDS011;2833;50.432;10.706;2023-04-03T05:13:56;3.50;;;3.20;;
5622;SDS011;2833;50.432;10.706;2023-04-03T05:16:21;5.33;;;3.90;;
5622;SDS011;2833;50.432;10.706;2023-04-03T05:18:46;4.00;;;2.97;;
5622;SDS011;2833;50.432;10.706;2023-04-03T05:21:12;3.70;;;3.40;;
5622;SDS011;2833;50.432;10.706;2023-04-03T05:23:37;3.10;;;2.80;;
5622;SDS011;2833;50.432;10.706;2023-04-03T05:26:02;4.00;;;3.23;;
5622;SDS011;2833;50.432;10.706;2023-04-03T05:28:28;6.27;;;4.70;;
5622;SDS011;2833;50.432;10.706;2023-04-03T05:30:54;8.53;;;5.20;;
5622;SDS011;2833;50.432;10.706;2023-04-03T05:33:20;4.97;;;3.13;;
5622;SDS011;2833;50.432;10.706;2023-04-03T05:35:45;5.20;;;3.47;;
5622;SDS011;2833;50.432;10.706;2023-04-03T05:38:10;9.20;;;4.00;;
5622;SDS011;2833;50.432;10.706;2023-04-03T05:40:36;8.47;;;3.27;;
5622;SDS011;2833;50.432;10.706;2023-04-03T05:43:02;4.70;;;3.87;;
5622;SDS011;2833;50.432;10.706;2023-04-03T05:45:27;6.33;;;3.83;;
5622;SDS011;2833;50.432;10.706;2023-04-03T05:47:52;4.33;;;3.80;;
5622;SDS011;2833;50.432;10.706;2023-04-03T05:50:17;6.00;;;3.40;;
5622;SDS011;2833;50.432;10.706;2023-04-03T05:52:44;8.00;;;5.10;;
5622;SDS011;2833;50.432;10.706;2023-04-03T05:55:10;5.20;;;3.50;;
5622;SDS011;2833;50.432;10.706;2023-04-03T05:57:35;5.53;;;3.63;;
5622;SDS011;2833;50.432;10.706;2023-04-03T06:00:00;5.90;;;4.90;;
5622;SDS011;2833;50.432;10.706;2023-04-03T06:02:26;4.43;;;3.40;;
5622;SDS011;2833;50.432;10.706;2023-04-03T06:04:52;4.90;;;3.30;;
5622;SDS011;2833;50.432;10.706;2023-04-03T06:07:18;9.37;;;4.30;;
5622;SDS011;2833;50.432;10.706;2023-04-03T06:09:45;8.43;;;4.50;;
5622;SDS011;2833;50.432;10.706;2023-04-03T06:12:11;4.40;;;4.00;;
5622;SDS011;2833;50.432;10.706;2023-04-03T06:14:36;4.20;;;3.50;;
5622;SDS011;2833;50.432;10.706;2023-04-03T06:17:02;7.13;;;4.57;;
5622;SDS011;2833;50.432;10.706;2023-04-03T06:19:27;8.40;;;5.50;;
5622;SDS011;2833;50.432;10.706;2023-04-03T06:21:53;6.60;;;4.60;;
5622;SDS011;2833;50.432;10.706;2023-04-03T06:24:18;10.97;;;6.00;;
5622;SDS011;2833;50.432;10.706;2023-04-03T06:26:44;9.23;;;4.97;;
5622;SDS011;2833;50.432;10.706;2023-04-03T06:29:10;4.57;;;4.10;;
5622;SDS011;2833;50.432;10.706;2023-04-03T06:31:35;7.43;;;3.50;;
5622;SDS011;2833;50.432;10.706;2023-04-03T06:34:04;4.60;;;3.20;;
5622;SDS011;2833;50.432;10.706;2023-04-03T06:36:31;5.00;;;3.70;;
5622;SDS011;2833;50.432;10.706;2023-04-03T06:38:56;6.33;;;4.00;;
5622;SDS011;2833;50.432;10.706;2023-04-03T06:41:22;2.87;;;2.60;;
5622;SDS011;2833;50.432;10.706;2023-04-03T06:43:47;7.60;;;5.00;;
5622;SDS011;2833;50.432;10.706;2023-04-03T06:46:16;6.00;;;3.87;;
5622;SDS011;2833;50.432;10.706;2023-04-03T06:48:41;4.87;;;3.50;;
5622;SDS011;2833;50.432;10.706;2023-04-03T06:51:09;6.20;;;3.90;;
5622;SDS011;2833;50.432;10.706;2023-04-03T06:53:35;3.50;;;3.20;;
5622;SDS011;2833;50.432;10.706;2023-04-03T06:56:00;5.57;;;3.33;;
5622;SDS011;2833;50.432;10.706;2023-04-03T06:58:25;5.80;;;3.80;;
5622;SDS011;2833;50.432;10.706;2023-04-03T07:00:51;6.37;;;4.63;;
5622;SDS011;2833;50.432;10.706;2023-04-03T07:03:16;6.83;;;4.13;;
5622;SDS011;2833;50.432;10.706;2023-04-03T07:05:41;8.37;;;3.73;;
5622;SDS011;2833;50.432;10.706;2023-04-03T07:08:09;6.77;;;3.47;;
5622;SDS011;2833;50.432;10.706;2023-04-03T07:10:34;3.37;;;3.07;;
5622;SDS011;2833;50.432;10.706;2023-04-03T07:13:00;5.77;;;3.27;;
5622;SDS011;2833;50.432;10.706;2023-04-03T07:15:26;9.37;;;5.87;;
5622;SDS011;2833;50.432;10.706;2023-04-03T07:17:51;9.00;;;4.60;;
5622;SDS011;2833;50.432;10.706;2023-04-03T07:20:16;6.83;;;3.97;;
5622;SDS011;2833;50.432;10.706;2023-04-03T07:22:42;6.40;;;3.37;;
5622;SDS011;2833;50.432;10.706;2023-04-03T07:25:07;6.63;;;3.53;;
5622;SDS011;2833;50.432;10.706;2023-04-03T07:27:32;4.40;;;4.00;;
5622;SDS011;2833;50.432;10.706;2023-04-03T07:29:58;5.83;;;3.07;;
5622;SDS011;2833;50.432;10.706;2023-04-03T07:32:23;20.37;;;10.30;;
5622;SDS011;2833;50.432;10.706;2023-04-03T07:34:48;10.67;;;6.13;;
5622;SDS011;2833;50.432;10.706;2023-04-03T07:37:13;14.13;;;7.70;;
5622;SDS011;2833;50.432;10.706;2023-04-03T07:39:39;10.23;;;5.93;;
5622;SDS011;2833;50.432;10.706;2023-04-03T07:42:04;11.57;;;5.40;;
5622;SDS011;2833;50.432;10.706;2023-04-03T07:44:30;6.83;;;3.70;;
5622;SDS011;2833;50.432;10.706;2023-04-03T07:46:55;8.63;;;5.47;;
5622;SDS011;2833;50.432;10.706;2023-04-03T07:49:21;7.27;;;5.37;;
5622;SDS011;2833;50.432;10.706;2023-04-03T07:51:49;4.97;;;3.40;;
5622;SDS011;2833;50.432;10.706;2023-04-03T07:54:14;5.17;;;3.23;;
5622;SDS011;2833;50.432;10.706;2023-04-03T07:56:40;2.90;;;2.60;;
5622;SDS011;2833;50.432;10.706;2023-04-03T07:59:07;11.20;;;5.63;;
5622;SDS011;2833;50.432;10.706;2023-04-03T08:01:32;2.37;;;1.63;;
5622;SDS011;2833;50.432;10.706;2023-04-03T08:03:58;4.80;;;3.87;;
5622;SDS011;2833;50.432;10.706;2023-04-03T08:06:24;2.63;;;2.03;;
5622;SDS011;2833;50.432;10.706;2023-04-03T08:08:49;3.97;;;2.53;;
5622;SDS011;2833;50.432;10.706;2023-04-03T08:11:14;2.60;;;1.77;;
5622;SDS011;2833;50.432;10.706;2023-04-03T08:13:39;4.27;;;3.40;;
5622;SDS011;2833;50.432;10.706;2023-04-03T08:16:14;3.67;;;2.83;;
5622;SDS011;2833;50.432;10.706;2023-04-03T08:18:41;5.83;;;2.70;;
5622;SDS011;2833;50.432;10.706;2023-04-03T08:21:07;3.90;;;2.50;;
5622;SDS011;2833;50.432;10.706;2023-04-03T08:23:32;3.77;;;2.47;;
5622;SDS011;2833;50.432;10.706;2023-04-03T08:25:57;4.10;;;2.70;;
5622;SDS011;2833;50.432;10.706;2023-04-03T08:28:23;3.00;;;2.00;;
5622;SDS011;2833;50.432;10.706;2023-04-03T08:30:48;0.67;;;0.60;;
5622;SDS011;2833;50.432;10.706;2023-04-03T08:33:13;3.70;;;2.00;;
5622;SDS011;2833;50.432;10.706;2023-04-03T08:35:41;2.03;;;1.80;;
5622;SDS011;2833;50.432;10.706;2023-04-03T08:38:07;2.13;;;1.90;;
5622;SDS011;2833;50.432;10.706;2023-04-03T08:40:32;8.87;;;2.30;;
5622;SDS011;2833;50.432;10.706;2023-04-03T08:48:07;3.58;;;2.17;;
5622;SDS011;2833;50.432;10.706;2023-04-03T08:50:37;1.77;;;1.50;;
5622;SDS011;2833;50.432;10.706;2023-04-03T08:53:04;2.00;;;1.90;;
5622;SDS011;2833;50.432;10.706;2023-04-03T08:55:37;1.97;;;1.57;;
5622;SDS011;2833;50.432;10.706;2023-04-03T08:58:05;2.63;;;1.93;;
5622;SDS011;2833;50.432;10.706;2023-04-03T09:03:12;1.77;;;1.67;;
5622;SDS011;2833;50.432;10.706;2023-04-03T09:10:47;4.33;;;2.20;;
5622;SDS011;2833;50.432;10.706;2023-04-03T09:13:21;0.70;;;0.70;;
5622;SDS011;2833;50.432;10.706;2023-04-03T09:15:48;2.63;;;2.30;;
5622;SDS011;2833;50.432;10.706;2023-04-03T09:18:21;3.93;;;2.10;;
5622;SDS011;2833;50.432;10.706;2023-04-03T09:20:59;6.13;;;2.47;;
5622;SDS011;2833;50.432;10.706;2023-04-03T09:25:56;4.93;;;3.27;;
5622;SDS011;2833;50.432;10.706;2023-04-03T09:28:22;2.23;;;1.80;;
5622;SDS011;2833;50.432;10.706;2023-04-03T09:30:48;2.70;;;2.00;;
5622;SDS011;2833;50.432;10.706;2023-04-03T09:33:13;2.63;;;2.47;;
5622;SDS011;2833;50.432;10.706;2023-04-03T09:35:38;4.93;;;2.90;;
5622;SDS011;2833;50.432;10.706;2023-04-03T09:40:37;1.73;;;1.50;;
5622;SDS011;2833;50.432;10.706;2023-04-03T09:45:46;1.87;;;1.70;;
5622;SDS011;2833;50.432;10.706;2023-04-03T09:50:37;4.17;;;1.50;;
5622;SDS011;2833;50.432;10.706;2023-04-03T09:53:05;2.07;;;1.87;;
5622;SDS011;2833;50.432;10.706;2023-04-03T09:55:30;2.80;;;1.97;;
5622;SDS011;2833;50.432;10.706;2023-04-03T09:58:00;4.57;;;1.80;;
5622;SDS011;2833;50.432;10.706;2023-04-03T10:00:36;1.40;;;1.30;;
5622;SDS011;2833;50.432;10.706;2023-04-03T10:03:02;2.97;;;2.30;;
5622;SDS011;2833;50.432;10.706;2023-04-03T10:05:30;2.93;;;2.10;;
5622;SDS011;2833;50.432;10.706;2023-04-03T10:10:40;2.30;;;1.80;;
5622;SDS011;2833;50.432;10.706;2023-04-03T10:13:07;4.03;;;2.50;;
5622;SDS011;2833;50.432;10.706;2023-04-03T10:15:36;3.33;;;2.53;;
5622;SDS011;2833;50.432;10.706;2023-04-03T10:18:04;3.33;;;2.50;;
5622;SDS011;2833;50.432;10.706;2023-04-03T10:30:42;15.82;;;7.97;;
5622;SDS011;2833;50.432;10.706;2023-04-03T10:33:20;11.63;;;4.20;;
5622;SDS011;2833;50.432;10.706;2023-04-03T10:38:48;8.23;;;4.87;;
5622;SDS011;2833;50.432;10.706;2023-04-03T10:41:17;4.90;;;2.40;;
5622;SDS011;2833;50.432;10.706;2023-04-03T10:56:41;9.17;;;5.90;;
5622;SDS011;2833;50.432;10.706;2023-04-03T11:01:53;2.23;;;1.63;;
5622;SDS011;2833;50.432;10.706;2023-04-03T11:04:20;13.30;;;5.80;;
5622;SDS011;2833;50.432;10.706;2023-04-03T11:06:54;10.60;;;6.70;;
5622;SDS011;2833;50.432;10.706;2023-04-03T11:11:47;5.57;;;3.67;;
5622;SDS011;2833;50.432;10.706;2023-04-03T11:24:51;3.73;;;1.53;;
5622;SDS011;2833;50.432;10.706;2023-04-03T11:27:20;6.23;;;3.20;;
5622;SDS011;2833;50.432;10.706;2023-04-03T11:29:47;3.20;;;2.90;;
5622;SDS011;2833;50.432;10.706;2023-04-03T11:32:29;3.40;;;3.10;;
5622;SDS011;2833;50.432;10.706;2023-04-03T11:34:58;6.33;;;3.93;;
5622;SDS011;2833;50.432;10.706;2023-04-03T11:37:33;4.70;;;4.20;;
5622;SDS011;2833;50.432;10.706;2023-04-03T11:40:02;5.83;;;2.90;;
5622;SDS011;2833;50.432;10.706;2023-04-03T11:47:45;4.47;;;3.07;;
5622;SDS011;2833;50.432;10.706;2023-04-03T11:52:55;3.60;;;2.90;;
5622;SDS011;2833;50.432;10.706;2023-04-03T11:58:32;4.32;;;3.67;;
5622;SDS011;2833;50.432;10.706;2023-04-03T12:05:47;5.10;;;3.03;;
5622;SDS011;2833;50.432;10.706;2023-04-03T12:08:58;4.30;;;2.60;;
5622;SDS011;2833;50.432;10.706;2023-04-03T12:16:08;11.23;;;3.57;;
5622;SDS011;2833;50.432;10.706;2023-04-03T12:18:48;3.13;;;2.30;;
5622;SDS011;2833;50.432;10.706;2023-04-03T12:21:20;5.33;;;3.03;;
5622;SDS011;2833;50.432;10.706;2023-04-03T12:24:23;2.37;;;1.87;;
5622;SDS011;2833;50.432;10.706;2023-04-03T12:45:21;3.10;;;2.10;;
5622;SDS011;2833;50.432;10.706;2023-04-03T12:47:48;4.30;;;2.80;;
5622;SDS011;2833;50.432;10.706;2023-04-03T12:50:31;5.60;;;3.10;;
5622;SDS011;2833;50.432;10.706;2023-04-03T12:55:26;3.70;;;2.50;;
5622;SDS011;2833;50.432;10.706;2023-04-03T12:57:51;6.43;;;2.60;;
5622;SDS011;2833;50.432;10.706;2023-04-03T13:00:21;2.20;;;1.20;;
5622;SDS011;2833;50.432;10.706;2023-04-03T13:02:46;2.73;;;2.30;;
5622;SDS011;2833;50.432;10.706;2023-04-03T13:05:17;2.60;;;1.80;;
5622;SDS011;2833;50.432;10.706;2023-04-03T13:07:42;2.90;;;2.37;;
5622;SDS011;2833;50.432;10.706;2023-04-03T13:12:34;2.58;;;1.90;;
5622;SDS011;2833;50.432;10.706;2023-04-03T13:15:01;3.80;;;2.00;;
5622;SDS011;2833;50.432;10.706;2023-04-03T13:17:27;3.90;;;2.70;;
5622;SDS011;2833;50.432;10.706;2023-04-03T13:19:53;4.30;;;3.37;;
5622;SDS011;2833;50.432;10.706;2023-04-03T13:22:38;2.70;;;2.13;;
5622;SDS011;2833;50.432;10.706;2023-04-03T13:25:08;5.47;;;3.57;;
5622;SDS011;2833;50.432;10.706;2023-04-03T13:27:34;2.50;;;2.30;;
5622;SDS011;2833;50.432;10.706;2023-04-03T13:30:00;1.83;;;1.73;;
5622;SDS011;2833;50.432;10.706;2023-04-03T13:32:28;1.90;;;1.53;;
5622;SDS011;2833;50.432;10.706;2023-04-03T13:34:54;5.03;;;2.50;;
5622;SDS011;2833;50.432;10.706;2023-04-03T13:37:27;2.80;;;2.60;;
5622;SDS011;2833;50.432;10.706;2023-04-03T13:40:13;2.87;;;2.10;;
5622;SDS011;2833;50.432;10.706;2023-04-03T13:42:38;3.73;;;2.97;;
5622;SDS011;2833;50.432;10.706;2023-04-03T13:45:21;1.40;;;1.30;;
5622;SDS011;2833;50.432;10.706;2023-04-03T13:47:49;5.47;;;2.87;;
5622;SDS011;2833;50.432;10.706;2023-04-03T13:50:16;2.50;;;2.20;;
5622;SDS011;2833;50.432;10.706;2023-04-03T14:00:19;1.80;;;1.70;;
5622;SDS011;2833;50.432;10.706;2023-04-03T14:02:46;5.30;;;1.80;;
5622;SDS011;2833;50.432;10.706;2023-04-03T14:05:12;3.27;;;2.90;;
5622;SDS011;2833;50.432;10.706;2023-04-03T14:07:37;3.40;;;1.90;;
5622;SDS011;2833;50.432;10.706;2023-04-03T14:10:02;3.10;;;2.80;;
5622;SDS011;2833;50.432;10.706;2023-04-03T14:12:31;2.40;;;2.13;;
5622;SDS011;2833;50.432;10.706;2023-04-03T14:14:59;2.67;;;2.43;;
5622;SDS011;2833;50.432;10.706;2023-04-03T14:17:25;3.47;;;2.07;;
5622;SDS011;2833;50.432;10.706;2023-04-03T14:19:52;2.43;;;1.97;;
5622;SDS011;2833;50.432;10.706;2023-04-03T14:22:19;6.77;;;2.20;;
5622;SDS011;2833;50.432;10.706;2023-04-03T14:24:44;1.73;;;1.63;;
5622;SDS011;2833;50.432;10.706;2023-04-03T14:27:17;9.33;;;3.20;;
5622;SDS011;2833;50.432;10.706;2023-04-03T14:29:42;1.67;;;1.53;;
5622;SDS011;2833;50.432;10.706;2023-04-03T14:32:10;4.60;;;2.70;;
5622;SDS011;2833;50.432;10.706;2023-04-03T14:34:35;9.20;;;3.23;;
5622;SDS011;2833;50.432;10.706;2023-04-03T14:37:00;3.00;;;2.70;;
5622;SDS011;2833;50.432;10.706;2023-04-03T14:39:26;2.83;;;1.83;;
5622;SDS011;2833;50.432;10.706;2023-04-03T14:41:51;6.13;;;3.60;;
5622;SDS011;2833;50.432;10.706;2023-04-03T14:44:16;7.67;;;3.60;;
5622;SDS011;2833;50.432;10.706;2023-04-03T14:46:42;2.70;;;2.47;;
5622;SDS011;2833;50.432;10.706;2023-04-03T14:49:21;2.90;;;1.90;;
5622;SDS011;2833;50.432;10.706;2023-04-03T14:51:46;30.40;;;13.30;;
5622;SDS011;2833;50.432;10.706;2023-04-03T14:54:16;2.77;;;2.10;;
5622;SDS011;2833;50.432;10.706;2023-04-03T14:56:42;3.20;;;2.00;;
5622;SDS011;2833;50.432;10.706;2023-04-03T14:59:09;6.17;;;2.83;;
5622;SDS011;2833;50.432;10.706;2023-04-03T15:01:35;8.77;;;3.83;;
5622;SDS011;2833;50.432;10.706;2023-04-03T15:04:01;6.23;;;5.00;;
5622;SDS011;2833;50.432;10.706;2023-04-03T15:06:26;3.90;;;2.53;;
5622;SDS011;2833;50.432;10.706;2023-04-03T15:08:51;8.20;;;3.40;;
5622;SDS011;2833;50.432;10.706;2023-04-03T15:11:16;3.77;;;3.17;;
5622;SDS011;2833;50.432;10.706;2023-04-03T15:13:41;9.33;;;4.70;;
5622;SDS011;2833;50.432;10.706;2023-04-03T15:16:15;8.70;;;2.87;;
5622;SDS011;2833;50.432;10.706;2023-04-03T15:18:40;6.80;;;2.77;;
5622;SDS011;2833;50.432;10.706;2023-04-03T15:21:06;4.23;;;2.90;;
5622;SDS011;2833;50.432;10.706;2023-04-03T15:23:31;7.33;;;5.20;;
5622;SDS011;2833;50.432;10.706;2023-04-03T15:25:56;1.97;;;1.80;;
5622;SDS011;2833;50.432;10.706;2023-04-03T15:28:28;2.70;;;1.30;;
5622;SDS011;2833;50.432;10.706;2023-04-03T15:30:55;3.37;;;3.07;;
5622;SDS011;2833;50.432;10.706;2023-04-03T15:33:24;2.50;;;2.27;;
5622;SDS011;2833;50.432;10.706;2023-04-03T15:35:49;3.30;;;3.00;;
5622;SDS011;2833;50.432;10.706;2023-04-03T15:38:14;4.73;;;3.20;;
5622;SDS011;2833;50.432;10.706;2023-04-03T15:40:40;5.30;;;3.10;;
5622;SDS011;2833;50.432;10.706;2023-04-03T15:43:06;6.93;;;4.17;;
5622;SDS011;2833;50.432;10.706;2023-04-03T15:45:31;11.83;;;4.37;;
5622;SDS011;2833;50.432;10.706;2023-04-03T15:47:57;2.20;;;2.00;;
5622;SDS011;2833;50.432;10.706;2023-04-03T15:50:23;3.60;;;2.50;;
5622;SDS011;2833;50.432;10.706;2023-04-03T15:52:49;4.70;;;3.07;;
5622;SDS011;2833;50.432;10.706;2023-04-03T15:55:18;3.90;;;2.43;;
5622;SDS011;2833;50.432;10.706;2023-04-03T15:57:44;7.23;;;3.87;;
5622;SDS011;2833;50.432;10.706;2023-04-03T16:00:09;3.17;;;2.20;;
5622;SDS011;2833;50.432;10.706;2023-04-03T16:02:35;13.23;;;7.40;;
5622;SDS011;2833;50.432;10.706;2023-04-03T16:05:00;2.60;;;2.40;;
5622;SDS011;2833;50.432;10.706;2023-04-03T16:07:25;3.27;;;2.20;;
5622;SDS011;2833;50.432;10.706;2023-04-03T16:09:51;4.17;;;3.10;;
5622;SDS011;2833;50.432;10.706;2023-04-03T16:12:16;4.40;;;4.00;;
5622;SDS011;2833;50.432;10.706;2023-04-03T16:14:41;7.27;;;3.30;;
5622;SDS011;2833;50.432;10.706;2023-04-03T16:17:07;3.87;;;3.47;;
5622;SDS011;2833;50.432;10.706;2023-04-03T16:19:32;4.20;;;3.30;;
5622;SDS011;2833;50.432;10.706;2023-04-03T16:21:57;3.00;;;2.63;;
5622;SDS011;2833;50.432;10.706;2023-04-03T16:24:22;2.90;;;2.57;;
5622;SDS011;2833;50.432;10.706;2023-04-03T16:26:48;4.00;;;3.03;;
5622;SDS011;2833;50.432;10.706;2023-04-03T16:29:13;2.33;;;1.90;;
5622;SDS011;2833;50.432;10.706;2023-04-03T16:31:38;5.93;;;3.40;;
5622;SDS011;2833;50.432;10.706;2023-04-03T16:34:03;9.90;;;6.37;;
5622;SDS011;2833;50.432;10.706;2023-04-03T16:36:28;9.00;;;5.20;;
5622;SDS011;2833;50.432;10.706;2023-04-03T16:38:54;2.73;;;2.53;;
5622;SDS011;2833;50.432;10.706;2023-04-03T16:41:19;3.60;;;2.83;;
5622;SDS011;2833;50.432;10.706;2023-04-03T16:43:44;5.33;;;3.07;;
5622;SDS011;2833;50.432;10.706;2023-04-03T16:46:09;4.87;;;4.30;;
5622;SDS011;2833;50.432;10.706;2023-04-03T16:48:35;8.07;;;5.30;;
5622;SDS011;2833;50.432;10.706;2023-04-03T16:51:00;7.97;;;5.80;;
5622;SDS011;2833;50.432;10.706;2023-04-03T16:53:25;8.13;;;5.43;;
5622;SDS011;2833;50.432;10.706;2023-04-03T16:55:51;3.33;;;2.73;;
5622;SDS011;2833;50.432;10.706;2023-04-03T16:58:16;8.33;;;4.40;;
5622;SDS011;2833;50.432;10.706;2023-04-03T17:00:42;3.70;;;3.07;;